Time;durP1;ratioP1;P1;durP2;ratioP2;P2;SDS_P1;SDS_P2;PMS_P1;PMS_P2;Temp;Humidity;BMP_temperature;BMP_pressure;BME280_temperature;BME280_humidity;BME280_pressure;Samples;Min_cycle;Max_cycle;Signal;HPM_P1;HPM_P2
2022/11/06 00:32:51;;;;;;;35.08;16.27;;;;;;;;;;10228036;23;20036;-86
2022/11/06 00:36:54;;;;;;;42.60;17.65;;;;;;;;;;10236841;23;20013;-90
2022/11/06 00:40:57;;;;;;;43.55;19.33;;;;;;;;;;10236181;23;20079;-87
2022/11/06 00:50:59;;;;;;;48.95;19.83;;;;;;;;;;10287346;22;20028;-86
2022/11/06 00:55:08;;;;;;;50.38;19.27;;;;;;;;;;10285667;23;20039;-87
2022/11/06 00:59:14;;;;;;;52.10;20.65;;;;;;;;;;10302617;23;20031;-86
2022/11/06 01:03:17;;;;;;;54.97;18.83;;;;;;;;;;10303781;23;20024;-86
2022/11/06 01:07:20;;;;;;;60.33;20.73;;;;;;;;;;10286046;23;20048;-87
2022/11/06 01:36:48;;;;;;;43.13;19.05;;;;;;;;;;10285004;23;20024;-86
2022/11/06 01:40:51;;;;;;;46.90;20.70;;;;;;;;;;10259132;23;20441;-89
2022/11/06 01:45:23;;;;;;;52.45;20.65;;;;;;;;;;10260621;23;20020;-85
2022/11/06 01:49:36;;;;;;;42.63;19.25;;;;;;;;;;10260551;23;20043;-88
2022/11/06 01:53:43;;;;;;;49.25;20.52;;;;;;;;;;10261875;23;20396;-87
2022/11/06 01:57:47;;;;;;;49.72;21.02;;;;;;;;;;10262844;23;20024;-89
2022/11/06 02:01:51;;;;;;;55.88;20.42;;;;;;;;;;10263197;23;20024;-87
2022/11/06 02:05:58;;;;;;;42.10;19.10;;;;;;;;;;10263543;23;20024;-88
2022/11/06 02:10:02;;;;;;;45.83;21.02;;;;;;;;;;10275561;23;20021;-87
2022/11/06 02:14:13;;;;;;;49.83;20.15;;;;;;;;;;10293421;23;20024;-87
2022/11/06 02:18:34;;;;;;;48.65;19.95;;;;;;;;;;10294445;23;20024;-87
2022/11/06 02:22:58;;;;;;;50.65;20.95;;;;;;;;;;10337013;23;20025;-87
2022/11/06 02:27:09;;;;;;;38.30;19.10;;;;;;;;;;10337673;23;20023;-86
2022/11/06 02:31:14;;;;;;;51.53;19.23;;;;;;;;;;10338383;23;20025;-88
2022/11/06 02:35:22;;;;;;;39.95;17.85;;;;;;;;;;10324133;23;20021;-87
2022/11/06 02:39:27;;;;;;;47.00;20.73;;;;;;;;;;10315261;23;20024;-86
2022/11/06 02:43:37;;;;;;;44.17;20.17;;;;;;;;;;10300004;23;20023;-89
2022/11/06 02:47:42;;;;;;;41.90;18.27;;;;;;;;;;10317493;23;20462;-87
2022/11/06 02:51:52;;;;;;;52.33;19.33;;;;;;;;;;10275319;23;20020;-88
2022/11/06 02:55:59;;;;;;;44.03;21.02;;;;;;;;;;10277866;23;20024;-86
2022/11/06 03:00:08;;;;;;;54.80;22.08;;;;;;;;;;10270693;23;20021;-87
2022/11/06 03:04:16;;;;;;;49.40;21.00;;;;;;;;;;10264166;23;20449;-86
2022/11/06 03:08:27;;;;;;;56.15;21.42;;;;;;;;;;10263278;23;20346;-87
2022/11/06 03:12:35;;;;;;;56.80;21.75;;;;;;;;;;10262430;23;20104;-85
2022/11/06 03:16:50;;;;;;;52.65;23.40;;;;;;;;;;10290708;23;20021;-87
2022/11/06 03:20:59;;;;;;;41.97;19.77;;;;;;;;;;10263083;23;20381;-87
2022/11/06 03:25:14;;;;;;;59.42;24.17;;;;;;;;;;10262597;23;20031;-87
2022/11/06 03:29:24;;;;;;;78.97;25.55;;;;;;;;;;10262673;23;20054;-87
2022/11/06 03:33:39;;;;;;;59.75;23.65;;;;;;;;;;10262372;23;20449;-87
2022/11/06 03:37:46;;;;;;;57.50;23.75;;;;;;;;;;10262375;23;20021;-87
2022/11/06 03:41:54;;;;;;;64.28;22.90;;;;;;;;;;10261813;23;20020;-89
2022/11/06 03:45:58;;;;;;;58.05;20.88;;;;;;;;;;10262006;23;20356;-86
2022/11/06 03:50:08;;;;;;;65.22;24.13;;;;;;;;;;10287919;23;20445;-87
2022/11/06 03:54:17;;;;;;;46.88;20.17;;;;;;;;;;10262043;23;20027;-88
2022/11/06 03:58:25;;;;;;;56.22;24.73;;;;;;;;;;10261225;23;20078;-87
2022/11/06 04:02:34;;;;;;;49.55;22.63;;;;;;;;;;10261290;23;20028;-88
2022/11/06 04:06:44;;;;;;;65.60;23.80;;;;;;;;;;10261643;23;20376;-86
2022/11/06 04:15:13;;;;;;;56.72;22.17;;;;;;;;;;10260573;23;20024;-87
2022/11/06 04:19:20;;;;;;;59.47;21.77;;;;;;;;;;10260508;23;20032;-88
2022/11/06 04:23:33;;;;;;;48.00;21.20;;;;;;;;;;10261103;23;20043;-87
2022/11/06 04:27:51;;;;;;;53.78;20.27;;;;;;;;;;10261150;23;20024;-89
2022/11/06 04:32:03;;;;;;;52.03;20.58;;;;;;;;;;10260695;23;20029;-88
2022/11/06 04:36:16;;;;;;;59.85;20.90;;;;;;;;;;10261054;23;20020;-87
2022/11/06 04:40:28;;;;;;;56.70;20.50;;;;;;;;;;10260845;23;20031;-89
2022/11/06 04:44:35;;;;;;;58.53;22.37;;;;;;;;;;10261043;23;20025;-86
2022/11/06 04:48:39;;;;;;;52.15;20.02;;;;;;;;;;10260767;23;20025;-89
2022/11/06 04:52:44;;;;;;;53.17;20.60;;;;;;;;;;10260774;23;20021;-86
2022/11/06 04:56:51;;;;;;;48.67;19.15;;;;;;;;;;10286678;23;20021;-87
2022/11/06 05:00:53;;;;;;;51.33;20.40;;;;;;;;;;10260664;23;20100;-89
2022/11/06 05:04:59;;;;;;;45.03;19.35;;;;;;;;;;10260212;23;20025;-86
2022/11/06 05:09:01;;;;;;;52.40;18.27;;;;;;;;;;10260368;23;20031;-89
2022/11/06 05:13:07;;;;;;;44.33;17.30;;;;;;;;;;10260063;23;20017;-86
2022/11/06 05:17:10;;;;;;;43.15;15.98;;;;;;;;;;10303507;23;20017;-86
2022/11/06 05:25:34;;;;;;;45.25;17.10;;;;;;;;;;10260613;23;20045;-87
2022/11/06 05:29:43;;;;;;;53.17;19.83;;;;;;;;;;10262318;23;20045;-89
2022/11/06 05:33:45;;;;;;;45.22;17.67;;;;;;;;;;10264083;23;20048;-86
2022/11/06 05:37:48;;;;;;;61.72;18.52;;;;;;;;;;10289685;23;20020;-87
2022/11/06 05:41:51;;;;;;;43.22;18.48;;;;;;;;;;10289576;23;20035;-86
2022/11/06 05:45:59;;;;;;;72.97;24.48;;;;;;;;;;10263483;23;20510;-87
2022/11/06 05:50:02;;;;;;;69.55;22.58;;;;;;;;;;10263359;23;20024;-86
2022/11/06 05:54:08;;;;;;;58.30;18.90;;;;;;;;;;10263504;23;20043;-87
2022/11/06 05:58:13;;;;;;;50.45;18.58;;;;;;;;;;10262980;23;20722;-89
2022/11/06 06:02:21;;;;;;;57.95;19.42;;;;;;;;;;10263115;23;20028;-87
2022/11/06 06:06:24;;;;;;;38.22;15.10;;;;;;;;;;10263189;23;20032;-89
2022/11/06 06:10:27;;;;;;;40.42;14.02;;;;;;;;;;10263318;23;20071;-86
2022/11/06 06:14:30;;;;;;;49.95;15.93;;;;;;;;;;10261595;23;20025;-87
2022/11/06 06:18:34;;;;;;;55.05;16.23;;;;;;;;;;10289243;23;20024;-88
2022/11/06 06:22:37;;;;;;;43.30;16.00;;;;;;;;;;10288950;23;20024;-86
2022/11/06 06:26:40;;;;;;;49.97;13.90;;;;;;;;;;10261765;23;20020;-86
2022/11/06 06:30:42;;;;;;;51.42;16.48;;;;;;;;;;10262358;23;20099;-86
2022/11/06 06:34:46;;;;;;;43.97;15.20;;;;;;;;;;10262369;23;20529;-87
2022/11/06 06:38:49;;;;;;;32.63;13.02;;;;;;;;;;10288601;23;20059;-87
2022/11/06 06:42:56;;;;;;;42.95;14.38;;;;;;;;;;10262377;23;20021;-86
2022/11/06 06:46:58;;;;;;;33.75;14.05;;;;;;;;;;10262819;23;20381;-87
2022/11/06 06:51:06;;;;;;;28.65;13.13;;;;;;;;;;10262382;23;20032;-86
2022/11/06 06:55:12;;;;;;;32.70;13.05;;;;;;;;;;10262393;23;20020;-86
2022/11/06 06:59:17;;;;;;;22.80;10.18;;;;;;;;;;10261162;23;20060;-88
2022/11/06 07:03:22;;;;;;;32.35;12.07;;;;;;;;;;10260774;23;20028;-87
2022/11/06 07:07:31;;;;;;;29.45;11.52;;;;;;;;;;10260474;23;20043;-88
2022/11/06 07:11:33;;;;;;;26.60;11.45;;;;;;;;;;10261547;23;20024;-91
2022/11/06 07:15:37;;;;;;;23.52;10.98;;;;;;;;;;10287523;23;20021;-87
2022/11/06 07:19:40;;;;;;;26.00;11.05;;;;;;;;;;10261960;23;20341;-89
2022/11/06 07:23:49;;;;;;;26.85;10.27;;;;;;;;;;10261984;23;20576;-89
2022/11/06 07:27:52;;;;;;;26.30;10.15;;;;;;;;;;10262291;23;20021;-87
2022/11/06 07:31:55;;;;;;;29.23;12.05;;;;;;;;;;10261868;23;20020;-88
2022/11/06 07:36:03;;;;;;;30.88;11.88;;;;;;;;;;10261867;23;20164;-87
2022/11/06 07:40:11;;;;;;;27.27;12.82;;;;;;;;;;10261464;23;20380;-88
2022/11/06 07:44:16;;;;;;;24.98;10.77;;;;;;;;;;10261512;23;20042;-87
2022/11/06 07:48:19;;;;;;;26.83;10.55;;;;;;;;;;10261644;23;20025;-86
2022/11/06 07:52:22;;;;;;;22.35;9.45;;;;;;;;;;10261269;23;20078;-89
2022/11/06 07:56:28;;;;;;;28.52;11.15;;;;;;;;;;10261239;23;20108;-90
2022/11/06 08:00:33;;;;;;;22.42;10.18;;;;;;;;;;10259276;23;20041;-89
2022/11/06 08:04:39;;;;;;;25.23;11.60;;;;;;;;;;10261277;23;20508;-88
2022/11/06 08:08:41;;;;;;;19.20;10.27;;;;;;;;;;10259788;23;20021;-88
2022/11/06 08:12:48;;;;;;;25.38;10.60;;;;;;;;;;10260489;23;20361;-91
2022/11/06 08:16:57;;;;;;;25.88;10.77;;;;;;;;;;10259710;23;20496;-89
2022/11/06 08:21:04;;;;;;;22.63;11.02;;;;;;;;;;10260888;23;20024;-87
2022/11/06 08:25:07;;;;;;;27.90;14.32;;;;;;;;;;10287188;23;20016;-88
2022/11/06 08:29:11;;;;;;;16.75;9.00;;;;;;;;;;10286206;23;20453;-88
2022/11/06 08:33:14;;;;;;;15.90;8.40;;;;;;;;;;10286595;23;20021;-89
2022/11/06 08:37:19;;;;;;;17.70;7.88;;;;;;;;;;10259680;23;20078;-89
2022/11/06 08:41:22;;;;;;;22.50;11.15;;;;;;;;;;10260238;23;20024;-88
2022/11/06 08:45:29;;;;;;;50.53;15.07;;;;;;;;;;10258880;23;20032;-87
2022/11/06 08:49:34;;;;;;;17.65;9.48;;;;;;;;;;10258326;23;20028;-88
2022/11/06 08:53:43;;;;;;;18.67;8.35;;;;;;;;;;10258281;23;20025;-87
2022/11/06 08:57:46;;;;;;;15.57;7.25;;;;;;;;;;10258760;23;20024;-87
2022/11/06 09:01:55;;;;;;;19.90;7.90;;;;;;;;;;10257582;23;20021;-89
2022/11/06 09:05:57;;;;;;;20.13;8.55;;;;;;;;;;10257310;23;20465;-89
2022/11/06 09:10:03;;;;;;;15.07;6.97;;;;;;;;;;10259126;23;20021;-88
2022/11/06 09:14:08;;;;;;;22.50;9.23;;;;;;;;;;10257480;23;20353;-90
2022/11/06 09:18:13;;;;;;;18.15;8.20;;;;;;;;;;10259387;23;20047;-88
2022/11/06 09:22:16;;;;;;;13.32;7.10;;;;;;;;;;10257342;23;20445;-87
2022/11/06 09:26:40;;;;;;;18.23;7.97;;;;;;;;;;10258697;23;20024;-90
2022/11/06 09:44:04;;;;;;;14.40;7.07;;;;;;;;;;10294938;22;20047;-90
2022/11/06 11:07:18;;;;;;;20.00;6.45;;;;;;;;;;10155820;23;20023;-90
2022/11/06 11:46:50;;;;;;;17.63;6.90;;;;;;;;;;10335531;23;20063;-89
2022/11/06 11:50:54;;;;;;;14.65;6.00;;;;;;;;;;10354376;23;20024;-88
2022/11/06 13:18:44;;;;;;;9.65;4.07;;;;;;;;;;10333603;22;20028;-89
2022/11/06 13:54:00;;;;;;;11.23;5.07;;;;;;;;;;10288106;23;20092;-90
2022/11/06 13:58:23;;;;;;;9.63;5.30;;;;;;;;;;10286953;23;20517;-89
2022/11/06 14:02:42;;;;;;;15.80;5.22;;;;;;;;;;10303859;23;20020;-89
2022/11/06 14:06:46;;;;;;;11.57;5.57;;;;;;;;;;10304141;23;20023;-89
2022/11/06 14:10:55;;;;;;;14.18;4.90;;;;;;;;;;10288653;23;20115;-88
2022/11/06 14:15:17;;;;;;;14.18;5.70;;;;;;;;;;10288949;23;20025;-91
2022/11/06 14:19:25;;;;;;;12.57;5.40;;;;;;;;;;10261728;23;20031;-89
2022/11/06 15:20:41;;;;;;;20.55;11.85;;;;;;;;;;10288809;23;20048;-87
2022/11/06 15:39:22;;;;;;;35.35;17.92;;;;;;;;;;10293287;23;20113;-89
2022/11/06 15:43:28;;;;;;;25.85;14.20;;;;;;;;;;10309876;23;20024;-87
2022/11/06 15:47:31;;;;;;;27.02;14.02;;;;;;;;;;10295256;23;20017;-85
2022/11/06 15:51:39;;;;;;;23.10;13.52;;;;;;;;;;10298249;23;20096;-86
2022/11/06 15:55:52;;;;;;;21.95;12.27;;;;;;;;;;10297961;23;20036;-87
2022/11/06 16:00:08;;;;;;;23.88;12.30;;;;;;;;;;10312013;23;20024;-87
2022/11/06 16:04:15;;;;;;;21.38;12.13;;;;;;;;;;10274030;23;20027;-87
2022/11/06 16:08:22;;;;;;;24.67;11.52;;;;;;;;;;10317373;23;20021;-86
2022/11/06 16:12:27;;;;;;;14.80;7.70;;;;;;;;;;10298485;23;20035;-88
2022/11/06 16:16:37;;;;;;;14.63;8.00;;;;;;;;;;10300448;23;20033;-89
2022/11/06 16:20:40;;;;;;;15.00;7.57;;;;;;;;;;10297441;23;20032;-87
2022/11/06 16:24:49;;;;;;;12.90;6.18;;;;;;;;;;10298461;23;20449;-88
2022/11/06 16:34:54;;;;;;;18.10;9.43;;;;;;;;;;10101123;23;20074;-87
2022/11/06 16:39:35;;;;;;;25.52;12.60;;;;;;;;;;10175533;23;20021;-87
2022/11/06 16:43:41;;;;;;;38.85;18.80;;;;;;;;;;10299642;23;20021;-87
2022/11/06 16:48:28;;;;;;;26.77;12.73;;;;;;;;;;10274052;23;20503;-88
2022/11/06 16:56:49;;;;;;;21.35;12.02;;;;;;;;;;10300647;22;20031;-88
2022/11/06 17:01:00;;;;;;;153.40;62.80;;;;;;;;;;10310573;23;20020;-88
2022/11/06 17:05:15;;;;;;;241.02;90.93;;;;;;;;;;10286806;23;20021;-87
2022/11/06 17:09:29;;;;;;;202.65;85.40;;;;;;;;;;10302032;23;20039;-87
2022/11/06 17:13:34;;;;;;;149.27;58.00;;;;;;;;;;10330233;23;20523;-88
2022/11/06 17:17:51;;;;;;;74.60;30.92;;;;;;;;;;10226348;23;20020;-86
2022/11/06 17:21:54;;;;;;;22.25;11.23;;;;;;;;;;10320273;23;20021;-88
2022/11/06 17:26:02;;;;;;;20.90;9.95;;;;;;;;;;10311034;23;20020;-87
2022/11/06 17:30:13;;;;;;;28.02;12.73;;;;;;;;;;10331080;23;20023;-88
2022/11/06 17:34:21;;;;;;;15.93;7.10;;;;;;;;;;10286396;23;20507;-87
2022/11/06 17:38:27;;;;;;;18.92;8.70;;;;;;;;;;10284317;23;20024;-87
2022/11/06 17:42:31;;;;;;;31.45;14.63;;;;;;;;;;10265393;23;20452;-89
2022/11/06 17:46:41;;;;;;;73.85;28.13;;;;;;;;;;10264053;23;20048;-89
2022/11/06 17:55:06;;;;;;;128.02;42.20;;;;;;;;;;10308545;23;20642;-85
2022/11/06 17:59:10;;;;;;;118.47;38.72;;;;;;;;;;10287622;23;20028;-86
2022/11/06 18:03:18;;;;;;;115.97;41.08;;;;;;;;;;10269363;23;20048;-87
2022/11/06 18:07:21;;;;;;;103.68;41.90;;;;;;;;;;10308628;23;20025;-88
2022/11/06 18:11:43;;;;;;;85.57;29.50;;;;;;;;;;10310919;23;20453;-85
2022/11/06 18:15:48;;;;;;;52.33;22.75;;;;;;;;;;10284563;23;20457;-85
2022/11/06 18:19:56;;;;;;;50.53;22.38;;;;;;;;;;10306299;23;20406;-86
2022/11/06 18:23:59;;;;;;;55.65;22.83;;;;;;;;;;10262434;23;20104;-89
2022/11/06 18:28:05;;;;;;;46.00;21.77;;;;;;;;;;10261723;23;20128;-86
2022/11/06 18:41:51;;;;;;;67.03;25.27;;;;;;;;;;10236746;23;20047;-87
2022/11/06 18:45:55;;;;;;;65.38;24.05;;;;;;;;;;10237924;23;20462;-87
2022/11/06 18:49:59;;;;;;;55.30;18.95;;;;;;;;;;10237488;23;20016;-87
2022/11/06 18:54:06;;;;;;;113.63;39.55;;;;;;;;;;10209915;23;20079;-89
2022/11/06 18:58:10;;;;;;;122.32;45.65;;;;;;;;;;10254057;23;20036;-87
2022/11/06 19:02:20;;;;;;;65.40;25.95;;;;;;;;;;10211441;23;20021;-88
2022/11/06 19:06:26;;;;;;;;;;;;;;;;;;10253943;23;20040;-87
2022/11/06 19:10:31;;;;;;;35.80;15.27;;;;;;;;;;10207625;23;19923;-86
2022/11/06 19:14:38;;;;;;;79.63;35.70;;;;;;;;;;10208981;23;20481;-87
2022/11/06 19:18:42;;;;;;;70.65;29.40;;;;;;;;;;10235132;23;20020;-88
2022/11/06 19:22:50;;;;;;;43.80;18.02;;;;;;;;;;10234007;23;20071;-86
2022/11/06 19:32:13;;;;;;;61.53;22.05;;;;;;;;;;9987121;23;20037;-88
2022/11/06 19:36:17;;;;;;;62.20;21.55;;;;;;;;;;10185512;23;20025;-87
2022/11/06 19:40:23;;;;;;;41.33;16.63;;;;;;;;;;10185988;23;20126;-87
2022/11/06 19:44:31;;;;;;;39.10;15.18;;;;;;;;;;10203797;23;20516;-88
2022/11/06 19:48:39;;;;;;;35.30;14.70;;;;;;;;;;10185968;23;20030;-88
2022/11/06 19:52:46;;;;;;;45.45;17.42;;;;;;;;;;10185403;23;20018;-86
2022/11/06 19:56:49;;;;;;;65.35;25.58;;;;;;;;;;10132323;23;20169;-85
2022/11/06 20:00:54;;;;;;;73.72;28.48;;;;;;;;;;10108648;23;20037;-85
2022/11/06 20:05:02;;;;;;;44.28;17.52;;;;;;;;;;10108456;23;20036;-88
2022/11/06 20:09:06;;;;;;;40.20;16.30;;;;;;;;;;10148383;23;20049;-85
2022/11/06 20:13:09;;;;;;;40.78;16.30;;;;;;;;;;10108170;23;20028;-85
2022/11/06 20:17:17;;;;;;;39.22;14.88;;;;;;;;;;10108540;23;20041;-87
2022/11/06 20:21:25;;;;;;;122.60;30.60;;;;;;;;;;10107074;23;20033;-89
2022/11/06 20:25:53;;;;;;;54.72;19.67;;;;;;;;;;10245605;23;20028;-86
2022/11/06 20:29:56;;;;;;;88.93;28.67;;;;;;;;;;10285155;23;20039;-87
2022/11/06 20:34:02;;;;;;;66.30;24.15;;;;;;;;;;10285046;23;20028;-85
2022/11/06 20:38:07;;;;;;;54.90;20.23;;;;;;;;;;10286082;23;20025;-85
2022/11/06 20:42:15;;;;;;;234.63;59.75;;;;;;;;;;10285556;23;20024;-85
2022/11/06 20:46:19;;;;;;;150.48;52.35;;;;;;;;;;10285929;23;20020;-85
2022/11/06 20:50:24;;;;;;;155.25;47.40;;;;;;;;;;10286168;23;20447;-85
2022/11/06 20:54:32;;;;;;;192.38;55.10;;;;;;;;;;10286018;23;20025;-89
2022/11/06 20:58:37;;;;;;;124.63;37.63;;;;;;;;;;10284821;23;20067;-86
2022/11/06 21:02:40;;;;;;;74.93;27.38;;;;;;;;;;10287621;23;20028;-85
2022/11/06 21:06:46;;;;;;;70.80;25.45;;;;;;;;;;10286034;23;20337;-86
2022/11/06 21:10:58;;;;;;;66.95;26.48;;;;;;;;;;10286178;23;20036;-85
2022/11/06 21:15:04;;;;;;;81.85;28.15;;;;;;;;;;10285500;23;20021;-86
2022/11/06 21:19:09;;;;;;;71.38;25.70;;;;;;;;;;10286135;23;20465;-86
2022/11/06 21:27:27;;;;;;;85.47;32.47;;;;;;;;;;10287064;22;20401;-86
2022/11/06 21:31:31;;;;;;;59.08;21.80;;;;;;;;;;10287004;23;20039;-86
2022/11/06 21:35:36;;;;;;;74.55;29.58;;;;;;;;;;10260816;23;20020;-88
2022/11/06 21:39:40;;;;;;;56.20;24.00;;;;;;;;;;10260373;23;20396;-86
2022/11/06 21:43:46;;;;;;;57.10;23.10;;;;;;;;;;10286792;23;20017;-86
2022/11/06 21:47:51;;;;;;;44.70;18.98;;;;;;;;;;10260604;23;20025;-84
2022/11/06 21:55:57;;;;;;;46.67;19.13;;;;;;;;;;10260788;23;20029;-85
2022/11/06 21:56:16;;;;;;;47.28;19.63;;;;;;;;;;10260102;23;20036;-86
2022/11/06 22:00:23;;;;;;;43.88;19.13;;;;;;;;;;10260315;23;20020;-86
2022/11/06 22:04:31;;;;;;;45.08;17.77;;;;;;;;;;10260143;23;20453;-86
2022/11/06 22:08:39;;;;;;;43.45;18.60;;;;;;;;;;10260601;23;20075;-86
2022/11/06 22:12:43;;;;;;;38.95;16.83;;;;;;;;;;10262970;23;20020;-86
2022/11/06 22:16:50;;;;;;;55.67;22.30;;;;;;;;;;10263569;23;20025;-86
2022/11/06 22:20:55;;;;;;;48.10;20.15;;;;;;;;;;10306112;23;20016;-85
2022/11/06 22:24:58;;;;;;;37.65;15.95;;;;;;;;;;10279308;23;20042;-86
2022/11/06 22:29:02;;;;;;;42.72;17.50;;;;;;;;;;10312646;23;20046;-85
2022/11/06 22:33:07;;;;;;;40.70;16.58;;;;;;;;;;10313165;23;20028;-87
2022/11/06 22:37:12;;;;;;;34.90;17.08;;;;;;;;;;10339226;23;20062;-85
2022/11/06 22:41:17;;;;;;;40.83;17.35;;;;;;;;;;10313009;23;20376;-85
2022/11/06 22:45:22;;;;;;;39.00;17.83;;;;;;;;;;10312434;23;20440;-85
2022/11/06 22:49:26;;;;;;;41.78;16.45;;;;;;;;;;10339239;23;20016;-85
2022/11/06 22:53:30;;;;;;;41.83;18.38;;;;;;;;;;10339135;23;20017;-86
2022/11/06 22:57:36;;;;;;;37.17;16.67;;;;;;;;;;10312979;23;20082;-86
2022/11/06 23:01:44;;;;;;;41.33;17.58;;;;;;;;;;10312562;23;20074;-86
2022/11/06 23:05:51;;;;;;;35.50;16.10;;;;;;;;;;10312073;23;20048;-86
2022/11/06 23:09:57;;;;;;;36.90;15.88;;;;;;;;;;10355892;23;20074;-87
2022/11/06 23:14:02;;;;;;;37.53;16.55;;;;;;;;;;10312401;23;20024;-86
2022/11/06 23:18:08;;;;;;;42.88;17.88;;;;;;;;;;10312108;23;20020;-85
2022/11/06 23:26:37;;;;;;;47.03;18.63;;;;;;;;;;10311439;23;20026;-85
2022/11/06 23:30:40;;;;;;;46.58;17.50;;;;;;;;;;10312475;23;20020;-87
2022/11/06 23:34:43;;;;;;;42.65;18.63;;;;;;;;;;10312238;23;20348;-89
2022/11/06 23:38:49;;;;;;;42.55;19.63;;;;;;;;;;10311775;23;20344;-86
2022/11/06 23:42:56;;;;;;;38.47;17.70;;;;;;;;;;10311920;23;20030;-85
2022/11/06 23:46:57;;;;;;;49.65;18.23;;;;;;;;;;10311991;23;20530;-86
2022/11/06 23:51:00;;;;;;;;;;;;;;;;;;10312504;23;20051;-85
2022/11/06 23:55:07;;;;;;;42.78;15.88;;;;;;;;;;10310958;23;19926;-87
2022/11/06 23:59:12;;;;;;;38.47;15.65;;;;;;;;;;10311447;23;20344;-86
